KFFA/FFA METAR and TAF weather

Enter ICAO airport designator
Station Type Date Time Source
KFFA METAR 2019/04/25 16:40 UTC NOAA

KFFA 251640Z AUTO 00000KT 10SM CLR 26/16 A2986 RMK AO2 T02550158


Station Type Date Time Source
KFFA Decoded METAR 2019/04/25 16:40 UTC NOAA

Kill Devil Hills, First Flight Airport, NC, United States (KFFA) 36-01N 075-40W
Apr 25, 2019 - 12:40 PM EDT / 2019.04.25 1640 UTC
Wind: Calm:0
Visibility: 10 mile(s):0
Sky conditions: clear
Temperature: 77.9 F (25.5 C)
Dew Point: 60.4 F (15.8 C)
Relative Humidity: 54%
Pressure (altimeter): 29.86 in. Hg (1011 hPa)
ob: KFFA 251640Z AUTO 00000KT 10SM CLR 26/16 A2986 RMK AO2 T02550158
cycle: 16

Station Type Date Time Source
KFFA TAF UTC NOAA

Error!

Example: see airport list